createdAt,value
2023-07-24T00:01:57.609Z,100363.88
2023-07-24T00:04:26.276Z,100355.22
2023-07-24T00:06:53.533Z,100353.53
2023-07-24T00:09:20.773Z,100343.41
2023-07-24T00:11:48.034Z,100333.19
2023-07-24T00:14:16.222Z,100337.31
2023-07-24T00:16:43.484Z,100339.34
2023-07-24T00:19:10.758Z,100333.75
2023-07-24T00:21:39.408Z,100330.84
2023-07-24T00:24:06.881Z,100337.66
2023-07-24T00:26:34.126Z,100328.56
2023-07-24T00:29:01.449Z,100321.91
2023-07-24T00:31:28.737Z,100323.16
2023-07-24T00:33:56.028Z,100321.56
2023-07-24T00:36:23.348Z,100324.28
2023-07-24T00:38:52.166Z,100328.91
2023-07-24T00:41:19.437Z,100323.53
2023-07-24T00:43:46.720Z,100322.31
2023-07-24T00:46:15.341Z,100322.91
2023-07-24T00:48:42.740Z,100317.03
2023-07-24T00:51:10.029Z,100312.50
2023-07-24T00:53:37.356Z,100304.59
2023-07-24T00:56:06.648Z,100307.47
2023-07-24T00:58:34.615Z,100303.75
2023-07-24T01:01:02.032Z,100295.84
2023-07-24T01:03:34.152Z,100295.03
2023-07-24T01:06:02.351Z,100297.03
2023-07-24T01:08:29.830Z,100285.69
2023-07-24T01:11:00.469Z,100287.31
2023-07-24T01:13:33.872Z,100290.00
2023-07-24T01:16:05.588Z,100285.09
2023-07-24T01:18:33.683Z,100283.03
2023-07-24T01:21:02.197Z,100281.41
2023-07-24T01:23:45.503Z,100283.09
2023-07-24T01:26:14.709Z,100278.97
2023-07-24T01:28:42.000Z,100280.22
2023-07-24T01:31:09.321Z,100277.31
2023-07-24T01:33:36.677Z,100275.44
2023-07-24T01:36:05.090Z,100266.94
2023-07-24T01:38:35.316Z,100271.28
2023-07-24T01:41:03.481Z,100275.63
2023-07-24T01:43:32.223Z,100264.44
2023-07-24T01:45:59.662Z,100269.97
2023-07-24T01:48:26.999Z,100273.50
2023-07-24T01:50:54.221Z,100270.13
2023-07-24T01:53:21.509Z,100272.25
2023-07-24T01:55:48.806Z,100267.50
2023-07-24T01:58:16.109Z,100261.84
2023-07-24T02:00:44.769Z,100266.84
2023-07-24T02:03:12.157Z,100265.66
2023-07-24T02:05:39.482Z,100272.91
2023-07-24T02:08:06.794Z,100266.69
2023-07-24T02:10:37.950Z,100268.47
2023-07-24T02:13:05.203Z,100254.66
2023-07-24T02:15:32.486Z,100260.41
2023-07-24T02:18:01.276Z,100259.44
2023-07-24T02:20:28.528Z,100256.97
2023-07-24T02:22:55.793Z,100248.69
2023-07-24T02:25:23.045Z,100249.13
2023-07-24T02:27:50.321Z,100247.47
2023-07-24T02:30:17.670Z,100248.28
2023-07-24T02:32:44.928Z,100252.63
2023-07-24T02:35:13.666Z,100257.63
2023-07-24T02:37:40.966Z,100257.84
2023-07-24T02:40:09.277Z,100248.72
2023-07-24T02:42:36.512Z,100248.78
2023-07-24T02:45:04.499Z,100257.06
2023-07-24T02:47:31.749Z,100260.34
2023-07-24T02:49:58.966Z,100264.69
2023-07-24T02:52:27.578Z,100262.00
2023-07-24T02:54:55.078Z,100259.88
2023-07-24T02:57:22.414Z,100263.78
2023-07-24T02:59:49.702Z,100266.28
2023-07-24T03:02:16.975Z,100266.72
2023-07-24T03:04:44.248Z,100270.03
2023-07-24T03:07:11.588Z,100272.09
2023-07-24T03:09:40.181Z,100279.19
2023-07-24T03:12:07.884Z,100282.91
2023-07-24T03:14:34.955Z,100281.22
2023-07-24T03:17:03.622Z,100281.56
2023-07-24T03:19:31.027Z,100277.88
2023-07-24T03:21:58.300Z,100278.09
2023-07-24T03:24:25.600Z,100281.22
2023-07-24T03:26:54.212Z,100280.41
2023-07-24T03:29:21.529Z,100277.53
2023-07-24T03:31:48.846Z,100287.91
2023-07-24T03:34:16.098Z,100286.88
2023-07-24T03:36:43.353Z,100283.75
2023-07-24T03:39:11.170Z,100288.41
2023-07-24T03:41:38.960Z,100288.91
2023-07-24T03:44:07.587Z,100291.72
2023-07-24T03:46:35.007Z,100289.13
2023-07-24T03:49:02.261Z,100289.13
2023-07-24T03:51:29.540Z,100283.97
2023-07-24T03:53:56.845Z,100286.88
2023-07-24T03:56:24.162Z,100284.97
2023-07-24T03:58:51.422Z,100282.03
2023-07-24T04:01:20.151Z,100281.41
2023-07-24T04:03:47.578Z,100281.19
2023-07-24T04:06:14.886Z,100280.94
2023-07-24T04:08:42.177Z,100279.81
2023-07-24T04:11:09.452Z,100287.06
2023-07-24T04:13:36.767Z,100276.56
2023-07-24T04:16:04.178Z,100285.22
2023-07-24T04:18:32.850Z,100281.69
2023-07-24T04:21:00.086Z,100273.19
2023-07-24T04:23:27.346Z,100267.34
2023-07-24T04:25:54.647Z,100269.59
2023-07-24T04:28:21.957Z,100277.53
2023-07-24T04:30:49.233Z,100272.34
2023-07-24T04:33:16.549Z,100277.75
2023-07-24T04:35:48.748Z,100268.63
2023-07-24T04:38:15.991Z,100269.59
2023-07-24T04:40:44.924Z,100267.09
2023-07-24T04:43:12.250Z,100273.44
2023-07-24T04:45:39.554Z,100267.16
2023-07-24T04:48:07.068Z,100267.56
2023-07-24T04:50:34.355Z,100263.22
2023-07-24T04:53:03.127Z,100264.59
2023-07-24T04:55:30.471Z,100265.34
2023-07-24T04:57:57.737Z,100266.84
2023-07-24T05:00:24.978Z,100264.59
2023-07-24T05:02:52.270Z,100265.63
2023-07-24T05:05:19.565Z,100264.34
2023-07-24T05:07:46.832Z,100268.72
2023-07-24T05:10:15.672Z,100263.25
2023-07-24T05:12:43.018Z,100254.53
2023-07-24T05:15:10.987Z,100258.94
2023-07-24T05:17:38.478Z,100256.16
2023-07-24T05:20:07.367Z,100255.75
2023-07-24T05:22:34.616Z,100248.22
2023-07-24T05:25:02.016Z,100242.13
2023-07-24T05:27:30.769Z,100241.88
2023-07-24T05:29:58.009Z,100240.13
2023-07-24T05:32:25.305Z,100243.59
2023-07-24T05:34:52.654Z,100237.03
2023-07-24T05:37:19.866Z,100244.66
2023-07-24T05:39:47.199Z,100244.66
2023-07-24T05:42:14.477Z,100233.41
2023-07-24T05:44:43.093Z,100242.34
2023-07-24T05:47:10.363Z,100246.22
2023-07-24T05:49:38.054Z,100234.88
2023-07-24T05:52:06.373Z,100231.47
2023-07-24T05:54:33.430Z,100225.47
2023-07-24T05:57:00.579Z,100221.72
2023-07-24T05:59:27.838Z,100216.22
2023-07-24T06:01:56.488Z,100219.59
2023-07-24T06:04:23.862Z,100214.44
2023-07-24T06:06:51.156Z,100214.75
2023-07-24T06:09:20.573Z,100202.28
2023-07-24T06:11:49.461Z,100201.50
2023-07-24T06:14:16.750Z,100203.63
2023-07-24T06:16:44.106Z,100203.97
2023-07-24T06:19:12.780Z,100202.31
2023-07-24T06:21:40.044Z,100206.69
2023-07-24T06:24:07.276Z,100207.59
2023-07-24T06:26:34.599Z,100200.13
2023-07-24T06:29:01.885Z,100198.53
2023-07-24T06:31:29.142Z,100187.47
2023-07-24T06:33:56.386Z,100181.81
2023-07-24T06:36:24.962Z,100179.84
2023-07-24T06:38:52.241Z,100177.72
2023-07-24T06:41:19.574Z,100175.56
2023-07-24T06:43:47.072Z,100176.59
2023-07-24T06:46:14.129Z,100176.66
2023-07-24T06:48:41.423Z,100167.63
2023-07-24T06:51:08.728Z,100163.38
2023-07-24T06:53:37.354Z,100178.41
2023-07-24T06:56:04.903Z,100180.19
2023-07-24T06:58:32.129Z,100176.06
2023-07-24T07:00:59.472Z,100166.34
2023-07-24T07:03:26.741Z,100170.97
2023-07-24T07:05:59.776Z,100163.28
2023-07-24T07:08:27.233Z,100163.97
2023-07-24T07:10:57.335Z,100173.13
2023-07-24T07:13:24.615Z,100166.66
2023-07-24T07:15:52.073Z,100158.69
2023-07-24T07:18:19.306Z,100156.63
2023-07-24T07:20:46.929Z,100151.44
2023-07-24T07:23:14.392Z,100140.88
2023-07-24T07:25:41.876Z,100145.09
2023-07-24T07:28:10.509Z,100148.66
2023-07-24T07:30:38.667Z,100146.63
2023-07-24T07:33:08.098Z,100143.34
2023-07-24T07:35:36.464Z,100138.59
2023-07-24T07:38:04.371Z,100136.50
2023-07-24T07:40:31.653Z,100139.69
2023-07-24T07:42:58.912Z,100164.03
2023-07-24T07:45:27.532Z,100171.66
2023-07-24T07:47:54.801Z,100177.44
2023-07-24T07:50:22.076Z,100179.91
2023-07-24T07:52:51.059Z,100180.47
2023-07-24T07:55:18.572Z,100163.53
2023-07-24T07:57:45.666Z,100162.19
2023-07-24T08:00:13.816Z,100153.22
2023-07-24T08:02:42.493Z,100152.69
2023-07-24T08:05:15.951Z,100165.69
2023-07-24T08:07:47.536Z,100157.66
2023-07-24T08:10:14.888Z,100153.56
2023-07-24T08:12:42.215Z,100143.47
2023-07-24T08:15:10.846Z,100141.53
2023-07-24T08:17:38.196Z,100140.06
2023-07-24T08:20:07.514Z,100137.03
2023-07-24T08:22:34.736Z,100130.19
2023-07-24T08:25:02.022Z,100121.84
2023-07-24T08:27:29.391Z,100128.59
2023-07-24T08:29:56.690Z,100121.84
2023-07-24T08:32:24.132Z,100127.47
2023-07-24T08:34:51.243Z,100114.41
2023-07-24T08:37:19.833Z,100109.44
2023-07-24T08:39:47.062Z,100120.16
2023-07-24T08:42:14.780Z,100117.53
2023-07-24T08:44:44.169Z,100120.75
2023-07-24T08:47:12.246Z,100113.16
2023-07-24T08:49:40.246Z,100107.94
2023-07-24T08:52:10.620Z,100114.81
2023-07-24T08:54:41.351Z,100107.13
2023-07-24T08:57:08.838Z,100098.31
2023-07-24T08:59:36.168Z,100094.69
2023-07-24T09:02:03.581Z,100096.03
2023-07-24T09:04:30.934Z,100101.47
2023-07-24T09:06:58.713Z,100084.19
2023-07-24T09:09:30.862Z,100089.19
2023-07-24T09:11:59.515Z,100076.63
2023-07-24T09:14:30.460Z,100076.31
2023-07-24T09:17:03.998Z,100071.56
2023-07-24T09:19:32.160Z,100071.00
2023-07-24T09:22:09.310Z,100065.38
2023-07-24T09:24:36.964Z,100063.97
2023-07-24T09:27:08.003Z,100065.34
2023-07-24T09:29:35.484Z,100074.50
2023-07-24T09:32:02.949Z,100070.94
2023-07-24T09:34:30.234Z,100070.63
2023-07-24T09:36:57.696Z,100075.84
2023-07-24T09:39:25.965Z,100070.41
2023-07-24T09:41:53.391Z,100067.13
2023-07-24T09:44:21.878Z,100076.28
2023-07-24T09:47:07.139Z,100072.47
2023-07-24T09:49:36.768Z,100069.03
2023-07-24T09:52:10.438Z,100075.81
2023-07-24T09:54:43.120Z,100071.41
2023-07-24T09:57:21.413Z,100059.78
2023-07-24T09:59:53.237Z,100057.44
2023-07-24T10:02:20.917Z,100059.66
2023-07-24T10:04:49.131Z,100053.22
2023-07-24T10:07:16.700Z,100051.91
2023-07-24T10:09:44.252Z,100056.78
2023-07-24T10:12:11.677Z,100057.19
2023-07-24T10:14:39.536Z,100040.47
2023-07-24T10:17:08.184Z,100034.16
2023-07-24T10:19:40.733Z,100021.09
2023-07-24T10:22:08.235Z,100018.34
2023-07-24T10:24:41.524Z,100024.78
2023-07-24T10:27:09.864Z,100012.81
2023-07-24T10:29:37.374Z,100004.78
2023-07-24T10:32:05.834Z,99990.81
2023-07-24T10:34:40.799Z,99995.16
2023-07-24T10:37:08.950Z,99984.66
2023-07-24T10:39:39.582Z,99975.53
2023-07-24T10:42:08.994Z,99975.16
2023-07-24T10:44:36.296Z,99980.06
2023-07-24T10:47:03.954Z,99984.09
2023-07-24T10:49:31.283Z,99964.28
2023-07-24T10:52:00.515Z,99970.97
2023-07-24T10:54:27.798Z,99963.16
2023-07-24T10:57:01.109Z,99954.16
2023-07-24T10:59:40.977Z,99947.56
2023-07-24T11:02:08.643Z,99939.44
2023-07-24T11:04:36.397Z,99946.88
2023-07-24T11:07:05.250Z,99934.34
2023-07-24T11:09:36.336Z,99925.63
2023-07-24T11:12:11.687Z,99926.00
2023-07-24T11:14:47.714Z,99917.59
2023-07-24T11:17:15.009Z,99909.03
2023-07-24T11:19:42.240Z,99890.69
2023-07-24T11:22:10.689Z,99893.06
2023-07-24T11:24:45.138Z,99892.34
2023-07-24T11:27:14.570Z,99892.41
2023-07-24T11:29:41.837Z,99885.13
2023-07-24T11:32:09.054Z,99874.66
2023-07-24T11:34:36.537Z,99870.97
2023-07-24T11:37:04.756Z,99883.03
2023-07-24T11:39:33.383Z,99871.28
2023-07-24T11:42:02.223Z,99874.56
2023-07-24T11:44:29.946Z,99866.41
2023-07-24T11:47:04.086Z,99867.53
2023-07-24T11:49:32.551Z,99859.94
2023-07-24T11:52:05.340Z,99867.06
2023-07-24T11:54:35.440Z,99853.69
2023-07-24T11:57:02.802Z,99850.72
2023-07-24T11:59:38.509Z,99863.63
2023-07-24T12:02:06.103Z,99859.31
2023-07-24T12:04:33.578Z,99863.06
2023-07-24T12:07:00.978Z,99858.19
2023-07-24T12:09:30.892Z,99845.19
2023-07-24T12:12:00.588Z,99844.84
2023-07-24T12:14:27.839Z,99846.84
2023-07-24T12:17:02.037Z,99847.69
2023-07-24T12:19:29.371Z,99847.56
2023-07-24T12:21:56.418Z,99847.13
2023-07-24T12:24:23.625Z,99850.56
2023-07-24T12:26:50.865Z,99846.03
2023-07-24T12:29:19.289Z,99854.25
2023-07-24T12:31:46.488Z,99855.41
2023-07-24T12:34:13.579Z,99863.41
2023-07-24T12:36:40.731Z,99874.94
2023-07-24T12:39:08.056Z,99868.47
2023-07-24T12:41:35.090Z,99867.28
2023-07-24T12:44:02.248Z,99861.88
2023-07-24T12:46:31.334Z,99863.25
2023-07-24T12:48:58.639Z,99856.69
2023-07-24T12:51:25.890Z,99850.72
2023-07-24T12:54:04.738Z,99846.28
2023-07-24T12:56:40.841Z,99857.41
2023-07-24T12:59:08.174Z,99836.22
2023-07-24T13:01:36.574Z,99830.38
2023-07-24T13:04:04.044Z,99827.38
2023-07-24T13:06:31.614Z,99829.59
2023-07-24T13:08:59.244Z,99825.19
2023-07-24T13:11:26.739Z,99820.88
2023-07-24T13:13:54.028Z,99811.75
2023-07-24T13:16:21.397Z,99817.06
2023-07-24T13:18:50.195Z,99822.84
2023-07-24T13:21:17.540Z,99816.78
2023-07-24T13:23:44.806Z,99823.50
2023-07-24T13:26:12.792Z,99815.56
2023-07-24T13:28:40.082Z,99818.03
2023-07-24T13:31:15.040Z,99811.53
2023-07-24T13:33:42.385Z,99823.47
2023-07-24T13:36:11.177Z,99808.31
2023-07-24T13:38:38.543Z,99807.66
2023-07-24T13:41:05.695Z,99797.78
2023-07-24T13:43:33.757Z,99797.28
2023-07-24T13:46:01.400Z,99798.13
2023-07-24T13:48:28.837Z,99797.06
2023-07-24T13:50:56.115Z,99803.34
2023-07-24T13:53:24.595Z,99797.38
2023-07-24T13:55:52.004Z,99788.75
2023-07-24T13:58:19.247Z,99788.75
2023-07-24T14:00:46.439Z,99781.69
2023-07-24T14:03:13.746Z,99784.72
2023-07-24T14:05:40.822Z,99787.16
2023-07-24T14:08:08.520Z,99787.16
2023-07-24T14:10:37.142Z,99792.34
2023-07-24T14:13:04.644Z,99790.97
2023-07-24T14:15:32.049Z,99795.88
2023-07-24T14:17:59.256Z,99803.69
2023-07-24T14:20:26.451Z,99807.47
2023-07-24T14:22:53.683Z,99790.91
2023-07-24T14:25:21.010Z,99780.28
2023-07-24T14:27:49.661Z,99774.59
2023-07-24T14:30:17.269Z,99780.03
2023-07-24T14:32:45.718Z,99777.25
2023-07-24T14:35:13.057Z,99771.88
2023-07-24T14:37:40.300Z,99770.78
2023-07-24T14:40:11.228Z,99763.66
2023-07-24T14:42:38.485Z,99770.16
2023-07-24T14:45:08.438Z,99766.41
2023-07-24T14:47:35.838Z,99754.50
2023-07-24T14:50:02.925Z,99755.88
2023-07-24T14:52:30.188Z,99759.94
2023-07-24T14:54:57.460Z,99752.34
2023-07-24T14:57:26.331Z,99749.94
2023-07-24T14:59:53.938Z,99735.28
2023-07-24T15:02:22.750Z,99730.69
2023-07-24T15:04:50.022Z,99719.25
2023-07-24T15:07:17.239Z,99718.69
2023-07-24T15:09:44.668Z,99710.56
2023-07-24T15:12:11.803Z,99709.19
2023-07-24T15:14:39.133Z,99688.81
2023-07-24T15:17:06.448Z,99696.75
2023-07-24T15:19:35.083Z,99691.59
2023-07-24T15:22:02.356Z,99689.41
2023-07-24T15:24:29.685Z,99681.81
2023-07-24T15:26:56.733Z,99677.47
2023-07-24T15:29:23.912Z,99666.31
2023-07-24T15:31:51.212Z,99663.31
2023-07-24T15:34:18.457Z,99667.63
2023-07-24T15:36:47.082Z,99677.13
2023-07-24T15:39:14.379Z,99676.88
2023-07-24T15:41:41.668Z,99669.81
2023-07-24T15:44:08.925Z,99657.63
2023-07-24T15:46:36.326Z,99662.75
2023-07-24T15:49:04.854Z,99662.69
2023-07-24T15:51:32.261Z,99657.75
2023-07-24T15:54:01.085Z,99661.09
2023-07-24T15:56:28.327Z,99655.59
2023-07-24T15:58:55.695Z,99657.22
2023-07-24T16:01:22.830Z,99658.03
2023-07-24T16:03:50.090Z,99662.16
2023-07-24T16:06:17.373Z,99656.19
2023-07-24T16:08:44.700Z,99651.31
2023-07-24T16:11:13.159Z,99646.34
2023-07-24T16:13:41.561Z,99642.09
2023-07-24T16:16:09.232Z,99644.25
2023-07-24T16:18:37.085Z,99649.16
2023-07-24T16:21:04.453Z,99638.91
2023-07-24T16:23:31.508Z,99643.78
2023-07-24T16:25:58.684Z,99628.88
2023-07-24T16:28:27.512Z,99630.22
2023-07-24T16:30:54.882Z,99629.69
2023-07-24T16:33:24.277Z,99623.16
2023-07-24T16:35:52.144Z,99616.88
2023-07-24T16:38:19.641Z,99617.72
2023-07-24T16:40:46.938Z,99617.19
2023-07-24T16:43:14.265Z,99605.72
2023-07-24T16:46:03.069Z,99598.88
2023-07-24T16:48:30.256Z,99594.25
2023-07-24T16:50:57.343Z,99592.66
2023-07-24T16:53:24.685Z,99597.09
2023-07-24T16:55:51.796Z,99588.69
2023-07-24T16:58:19.065Z,99570.47
2023-07-24T17:00:47.520Z,99559.63
2023-07-24T17:03:14.790Z,99562.38
2023-07-24T17:05:42.183Z,99568.41
2023-07-24T17:08:09.469Z,99559.44
2023-07-24T17:10:42.937Z,99560.25
2023-07-24T17:13:09.996Z,99547.50
2023-07-24T17:15:37.148Z,99531.78
2023-07-24T17:18:06.188Z,99527.16
2023-07-24T17:20:33.451Z,99501.72
2023-07-24T17:23:00.794Z,99485.44
2023-07-24T17:25:27.877Z,99477.84
2023-07-24T17:27:55.390Z,99470.25
2023-07-24T17:30:22.714Z,99448.59
2023-07-24T17:32:50.039Z,99440.47
2023-07-24T17:35:18.654Z,99441.78
2023-07-24T17:37:45.930Z,99453.47
2023-07-24T17:40:13.358Z,99492.47
2023-07-24T17:42:40.447Z,99607.91
2023-07-24T17:45:07.992Z,99680.53
2023-07-24T17:47:35.710Z,99659.41
2023-07-24T17:50:07.947Z,99661.94
2023-07-24T17:52:37.788Z,99701.31
2023-07-24T17:55:05.746Z,99716.22
2023-07-24T17:57:33.171Z,99700.31
2023-07-24T18:00:00.468Z,99718.72
2023-07-24T18:02:27.712Z,99711.09
2023-07-24T18:04:54.958Z,99686.13
2023-07-24T18:07:22.190Z,99687.81
2023-07-24T18:09:50.832Z,99695.25
2023-07-24T18:12:18.538Z,99735.41
2023-07-24T18:14:45.889Z,99832.34
2023-07-24T18:17:13.291Z,99852.19
2023-07-24T18:19:40.514Z,99849.09
2023-07-24T18:22:07.786Z,99853.22
2023-07-24T18:24:35.288Z,99864.09
2023-07-24T18:27:04.426Z,99856.72
2023-07-24T18:29:31.704Z,99840.75
2023-07-24T18:31:59.042Z,99841.97
2023-07-24T18:34:26.339Z,99834.78
2023-07-24T18:36:53.577Z,99814.38
2023-07-24T18:39:20.889Z,99807.13
2023-07-24T18:41:48.117Z,99803.84
2023-07-24T18:44:16.836Z,99802.59
2023-07-24T18:46:44.089Z,99782.88
2023-07-24T18:49:11.439Z,99767.50
2023-07-24T18:54:09.735Z,99756.88
2023-07-24T18:56:36.995Z,99729.50
2023-07-24T18:59:04.214Z,99737.38
2023-07-24T19:01:33.082Z,99736.56
2023-07-24T19:04:00.687Z,99738.06
2023-07-24T19:06:28.009Z,99730.69
2023-07-24T19:08:55.275Z,99728.97
2023-07-24T19:11:22.703Z,99721.53
2023-07-24T19:13:49.988Z,99721.97
2023-07-24T19:16:17.453Z,99724.00
2023-07-24T19:18:46.031Z,99746.94
2023-07-24T19:21:13.350Z,99779.94
2023-07-24T19:23:40.676Z,99782.84
2023-07-24T19:26:08.036Z,99785.53
2023-07-24T19:28:35.292Z,99795.38
2023-07-24T19:31:02.741Z,99795.59
2023-07-24T19:33:29.996Z,99788.59
2023-07-24T19:36:00.834Z,99796.84
2023-07-24T19:38:28.146Z,99802.03
2023-07-24T19:40:56.115Z,99818.72
2023-07-24T19:43:23.402Z,99813.81
2023-07-24T19:45:50.931Z,99810.47
2023-07-24T19:48:18.664Z,99806.78
2023-07-24T19:50:49.320Z,99803.44
2023-07-24T19:53:18.143Z,99805.91
2023-07-24T19:55:47.173Z,99802.63
2023-07-24T19:58:26.394Z,99796.88
2023-07-24T20:00:59.923Z,99797.69
2023-07-24T20:03:27.311Z,99802.25
2023-07-24T20:05:55.389Z,99799.59
2023-07-24T20:08:24.684Z,99800.63
2023-07-24T20:10:53.043Z,99794.41
2023-07-24T20:13:20.424Z,99787.16
2023-07-24T20:15:47.942Z,99795.72
2023-07-24T20:18:15.769Z,99796.38
2023-07-24T20:20:45.350Z,99803.19
2023-07-24T20:23:12.743Z,99812.88
2023-07-24T20:25:41.981Z,99820.28
2023-07-24T20:28:09.758Z,99822.56
2023-07-24T20:30:37.550Z,99835.13
2023-07-24T20:33:04.791Z,99847.47
2023-07-24T20:35:33.446Z,99837.81
2023-07-24T20:38:04.994Z,99858.19
2023-07-24T20:40:32.652Z,99848.72
2023-07-24T20:43:01.495Z,99860.47
2023-07-24T20:45:28.811Z,99863.13
2023-07-24T20:47:56.352Z,99861.69
2023-07-24T20:50:23.645Z,99858.81
2023-07-24T20:52:51.018Z,99850.59
2023-07-24T20:55:18.294Z,99855.09
2023-07-24T20:57:45.645Z,99862.94
2023-07-24T21:00:15.222Z,99864.19
2023-07-24T21:02:42.514Z,99865.00
2023-07-24T21:05:12.500Z,99860.84
2023-07-24T21:07:39.817Z,99875.91
2023-07-24T21:10:07.886Z,99873.84
2023-07-24T21:12:35.178Z,99870.75
2023-07-24T21:15:07.204Z,99888.28
2023-07-24T21:17:36.365Z,99890.94
2023-07-24T21:20:03.713Z,99893.06
2023-07-24T21:22:31.041Z,99898.00
2023-07-24T21:24:59.415Z,99900.06
2023-07-24T21:27:26.854Z,99901.72
2023-07-24T21:29:54.174Z,99897.78
2023-07-24T21:32:21.566Z,99890.59
2023-07-24T21:34:50.339Z,99889.16
2023-07-24T21:37:17.697Z,99898.81
2023-07-24T21:39:44.946Z,99901.50
2023-07-24T21:42:12.227Z,99900.88
2023-07-24T21:44:39.481Z,99892.44
2023-07-24T21:47:06.891Z,99894.91
2023-07-24T21:49:34.179Z,99891.00
2023-07-24T21:52:02.976Z,99894.28
2023-07-24T21:54:30.300Z,99889.34
2023-07-24T21:56:57.839Z,99888.13
2023-07-24T21:59:25.136Z,99896.78
2023-07-24T22:01:52.793Z,99900.06
2023-07-24T22:04:20.113Z,99898.44
2023-07-24T22:06:47.379Z,99894.72
2023-07-24T22:09:16.008Z,99895.75
2023-07-24T22:11:43.309Z,99894.31
2023-07-24T22:14:11.075Z,99883.22
2023-07-24T22:16:38.195Z,99885.91
2023-07-24T22:19:05.401Z,99893.47
2023-07-24T22:21:32.840Z,99889.78
2023-07-24T22:24:00.413Z,99884.88
2023-07-24T22:26:30.375Z,99890.22
2023-07-24T22:28:57.636Z,99893.53
2023-07-24T22:31:24.897Z,99898.88
2023-07-24T22:33:52.247Z,99904.00
2023-07-24T22:36:19.556Z,99899.28
2023-07-24T22:38:46.835Z,99901.94
2023-07-24T22:41:14.566Z,99902.78
2023-07-24T22:43:43.293Z,99913.88
2023-07-24T22:46:10.620Z,99901.78
2023-07-24T22:48:37.979Z,99896.81
2023-07-24T22:51:05.266Z,99906.06
2023-07-24T22:53:32.518Z,99905.03
2023-07-24T22:55:59.754Z,99915.09
2023-07-24T22:58:27.303Z,99911.81
2023-07-24T23:00:55.974Z,99911.81
2023-07-24T23:03:23.362Z,99914.28
2023-07-24T23:05:50.629Z,99919.84
2023-07-24T23:08:23.789Z,99913.84
2023-07-24T23:10:50.982Z,99913.03
2023-07-24T23:13:18.124Z,99914.88
2023-07-24T23:15:45.300Z,99917.38
2023-07-24T23:18:13.820Z,99919.41
2023-07-24T23:20:41.121Z,99920.66
2023-07-24T23:23:08.307Z,99916.09
2023-07-24T23:25:35.484Z,99925.97
2023-07-24T23:28:02.638Z,99925.75
2023-07-24T23:30:29.913Z,99934.41
2023-07-24T23:32:57.165Z,99927.19
2023-07-24T23:35:25.640Z,99932.13
2023-07-24T23:37:52.789Z,99928.84
2023-07-24T23:40:19.949Z,99929.66
2023-07-24T23:42:47.614Z,99927.38
2023-07-24T23:45:14.975Z,99923.47
2023-07-24T23:47:42.195Z,99929.63
2023-07-24T23:50:10.343Z,99932.69
2023-07-24T23:52:38.847Z,99942.75
2023-07-24T23:55:06.933Z,99948.50
2023-07-24T23:57:34.113Z,99946.84
